ESSL

Linköping City Airport

Linköping, Sweden
METAR ESSL 192220Z 05008KT 9999 -RA FEW003 SCT009 OVC010 01/00 Q1036
Observed Flight Rules
Nov-19 @ 22:20 UTC (17 minutes ago) Marginal Visual Flight Rules
Wind Visibility Clouds Conditions
50° at 8 knots 10,000+ meters
  • Few at 300' AGL
  • Scattered at 900' AGL
  • Overcast at 1,000' AGL
  • Light Rain
Temperatures Readings
Current 1°C / 34°F
Dewpoint 0°C / 32°F
Humidity 93%
Altimeter 30.59" Hg
Pressure 1036 hPa
Elevation 52
METAR ESSL 192220Z 05008KT 9999 -RA FEW003 SCT009 OVC010 01/00 Q1036
Observed Flight Rules
Nov-19 @ 22:20 UTC
(17 minutes ago)
MVFR
Wind Visibility
50° at 8 knots 10,000+ meters
Clouds
  • Few at 300' AGL
  • Scattered at 900' AGL
  • Overcast at 1,000' AGL
Conditions
  • Light Rain
Temperature Dewpoint
1°C / 34°F 0°C / 32°F
Humidity Altimeter Pressure
93% 30.59" Hg 1036 hPa